Time;durP1;ratioP1;P1;durP2;ratioP2;P2;SDS_P1;SDS_P2;PMS_P1;PMS_P2;Temp;Humidity;BMP_temperature;BMP_pressure;BME280_temperature;BME280_humidity;BME280_pressure;Samples;Min_cycle;Max_cycle;Signal;HPM_P1;HPM_P2
2021/12/28 00:12:29;;;;;;;26.70;8.97;;;;;;;-6.66;66.36;100244.48;715172;1178;114760;-78
2021/12/28 00:27:31;;;;;;;37.60;10.65;;;;;;;-6.73;66.65;100243.75;715638;1199;113418;-77
2021/12/28 00:42:34;;;;;;;36.13;10.55;;;;;;;-6.74;66.64;100253.99;714310;1202;114000;-77
2021/12/28 00:57:36;;;;;;;29.80;9.97;;;;;;;-6.73;66.20;100236.09;714140;1173;113703;-77
2021/12/28 01:12:38;;;;;;;38.53;11.58;;;;;;;-6.63;66.82;100229.11;715101;1200;113539;-78
2021/12/28 01:27:43;;;;;;;39.37;10.90;;;;;;;-6.60;66.86;100215.45;713795;1202;114693;-77
2021/12/28 01:42:55;;;;;;;38.77;11.83;;;;;;;-6.65;66.96;100196.83;713976;1199;114360;-76
2021/12/28 01:57:57;;;;;;;34.25;12.40;;;;;;;-6.89;67.41;100176.84;713652;1200;113955;-78
2021/12/28 02:13:00;;;;;;;35.40;12.73;;;;;;;-7.06;67.57;100154.19;713867;1200;115313;-79
2021/12/28 02:28:10;;;;;;;28.10;9.90;;;;;;;-7.27;67.98;100142.65;713997;1203;113712;-78
2021/12/28 02:43:16;;;;;;;26.15;8.40;;;;;;;-7.31;68.74;100117.22;713650;1182;114055;-78
2021/12/28 02:58:35;;;;;;;66.83;20.00;;;;;;;-7.36;69.36;100099.47;713717;1200;113660;-78
2021/12/28 03:13:42;;;;;;;25.60;8.58;;;;;;;-7.37;69.94;100092.68;713725;1178;113791;-78
2021/12/28 03:28:45;;;;;;;25.50;8.73;;;;;;;-7.36;69.86;100062.06;713742;1203;113443;-79
2021/12/28 03:43:51;;;;;;;15.70;7.00;;;;;;;-7.28;70.77;100054.28;713790;1174;113762;-79
2021/12/28 03:58:53;;;;;;;29.75;10.30;;;;;;;-7.21;70.62;100060.93;713771;1199;113437;-78
2021/12/28 04:14:03;;;;;;;43.63;15.25;;;;;;;-7.16;70.74;100057.48;713694;1203;113657;-78
2021/12/28 04:29:05;;;;;;;85.22;23.93;;;;;;;-7.22;70.96;100043.12;713740;1200;113501;-77
2021/12/28 04:44:11;;;;;;;46.78;13.80;;;;;;;-7.17;71.78;100068.55;713830;1202;114280;-77
2021/12/28 04:59:15;;;;;;;115.43;24.37;;;;;;;-7.04;72.06;100068.27;713839;1200;114292;-77
2021/12/28 05:14:19;;;;;;;64.35;18.40;;;;;;;-6.73;72.60;100056.61;714621;1189;114228;-80
2021/12/28 05:29:21;;;;;;;104.67;26.77;;;;;;;-6.47;73.04;100055.24;714870;1177;113510;-78
2021/12/28 05:44:24;;;;;;;107.85;26.55;;;;;;;-6.40;73.82;100052.53;714847;1176;113942;-78
2021/12/28 05:59:26;;;;;;;137.37;36.07;;;;;;;-6.31;74.77;100020.83;715012;1177;113878;-79
2021/12/28 06:14:29;;;;;;;122.83;35.20;;;;;;;-6.10;75.33;100011.00;715077;1206;115358;-80
2021/12/28 06:29:32;;;;;;;124.95;29.93;;;;;;;-6.21;75.00;100024.86;714096;1199;114535;-78
2021/12/28 06:44:34;;;;;;;133.23;33.47;;;;;;;-6.39;74.94;100017.61;713924;1199;114694;-80
2021/12/28 06:59:43;;;;;;;125.95;29.90;;;;;;;-6.47;75.21;100004.19;714443;1200;113896;-78
2021/12/28 07:14:45;;;;;;;75.67;24.47;;;;;;;-6.38;76.38;99988.66;714207;1200;113792;-79
2021/12/28 07:29:48;;;;;;;101.73;28.20;;;;;;;-6.20;77.11;100012.94;714633;1199;113927;-82
2021/12/28 07:44:51;;;;;;;88.13;21.17;;;;;;;-5.85;77.81;100009.51;714587;1175;114285;-74
2021/12/28 07:59:53;;;;;;;101.27;27.83;;;;;;;-5.66;78.98;99977.52;714493;1200;113512;-77
2021/12/28 08:14:56;;;;;;;74.67;24.50;;;;;;;-5.33;79.57;99996.25;714368;1200;113441;-77
2021/12/28 08:30:00;;;;;;;66.43;22.13;;;;;;;-5.10;80.20;99962.34;714156;1177;113820;-79
2021/12/28 08:45:05;;;;;;;69.80;21.85;;;;;;;-4.91;81.40;99962.67;714791;1178;115492;-77
2021/12/28 09:00:17;;;;;;;100.23;29.73;;;;;;;-4.75;82.06;99937.45;714299;1175;113748;-80
2021/12/28 09:15:20;;;;;;;108.07;29.47;;;;;;;-4.54;81.80;99914.61;714459;1177;113693;-82
2021/12/28 09:30:23;;;;;;;195.10;64.00;;;;;;;-4.45;82.14;99910.93;714637;1190;114597;-82
2021/12/28 09:45:27;;;;;;;115.33;35.00;;;;;;;-4.22;82.48;99905.90;714381;1175;113973;-76
2021/12/28 10:00:30;;;;;;;84.13;28.95;;;;;;;-4.10;83.33;99883.33;714968;1203;113703;-78
2021/12/28 10:15:51;;;;;;;139.30;42.25;;;;;;;-3.90;83.30;99868.09;715084;1177;113586;-76
2021/12/28 10:30:58;;;;;;;155.00;48.68;;;;;;;-3.81;83.50;99864.38;714511;1199;114889;-74
2021/12/28 10:46:11;;;;;;;122.27;40.13;;;;;;;-3.76;83.70;99800.10;714662;1199;115387;-74
2021/12/28 11:01:26;;;;;;;88.80;31.30;;;;;;;-3.54;83.95;99785.62;714307;1199;115197;-75
2021/12/28 11:16:31;;;;;;;83.70;30.23;;;;;;;-3.55;84.02;99786.50;714459;1203;113761;-73
2021/12/28 11:31:34;;;;;;;;;;;;;;;-3.63;85.23;99752.63;714704;1199;114100;-73
2021/12/28 11:46:38;;;;;;;91.35;35.23;;;;;;;-3.56;84.98;99756.62;714779;1178;99542;-75
2021/12/28 12:01:52;;;;;;;57.28;20.83;;;;;;;-3.58;85.12;99749.88;715144;1200;113936;-73
2021/12/28 12:17:39;;;;;;;77.20;26.23;;;;;;;-3.51;86.41;99713.68;714702;1200;114265;-74
2021/12/28 12:33:00;;;;;;;221.48;64.05;;;;;;;-3.32;86.22;99696.73;715365;1199;113764;-78
2021/12/28 12:48:03;;;;;;;159.07;44.63;;;;;;;-3.26;86.63;99684.50;715847;1199;115008;-78
2021/12/28 13:03:06;;;;;;;99.73;32.75;;;;;;;-3.21;87.24;99685.15;715093;1199;114129;-79
2021/12/28 13:18:09;;;;;;;123.58;42.30;;;;;;;-3.23;87.68;99643.31;714449;1199;113692;-78
2021/12/28 13:33:19;;;;;;;137.03;42.03;;;;;;;-3.13;87.67;99630.92;714407;1199;114377;-79
2021/12/28 13:48:30;;;;;;;149.18;51.40;;;;;;;-3.23;88.70;99606.56;714488;1184;113952;-79
2021/12/28 14:03:33;;;;;;;177.23;48.07;;;;;;;-3.13;88.95;99618.09;714939;1200;113962;-79
2021/12/28 14:18:48;;;;;;;154.95;45.35;;;;;;;-3.15;89.06;99608.78;715300;1199;114396;-80
2021/12/28 14:33:50;;;;;;;112.87;38.60;;;;;;;-3.11;90.00;99587.25;714684;1178;113866;-81
2021/12/28 14:48:53;;;;;;;122.83;38.93;;;;;;;-3.02;90.46;99587.68;714446;1205;115339;-73
2021/12/28 15:03:56;;;;;;;205.70;54.60;;;;;;;-2.82;90.17;99580.85;714558;1177;114040;-79
2021/12/28 15:18:59;;;;;;;104.03;34.30;;;;;;;-2.79;90.51;99580.70;715256;1177;114547;-78
2021/12/28 15:34:02;;;;;;;107.75;32.65;;;;;;;-2.69;90.43;99579.41;715289;1184;114147;-80
2021/12/28 15:49:06;;;;;;;90.13;31.33;;;;;;;-2.62;90.64;99582.53;714491;1175;114966;-80
2021/12/28 16:04:10;;;;;;;72.55;26.68;;;;;;;-2.62;90.68;99579.95;714718;1174;115497;-79
2021/12/28 16:19:14;;;;;;;75.50;28.25;;;;;;;-2.56;90.23;99542.88;715337;1178;114619;-79
2021/12/28 16:34:17;;;;;;;72.50;29.43;;;;;;;-2.49;90.81;99543.44;714837;1182;113829;-79
2021/12/28 16:49:20;;;;;;;84.18;32.75;;;;;;;-2.40;90.76;99551.57;714785;1200;115242;-80
2021/12/28 17:04:24;;;;;;;68.53;26.90;;;;;;;-2.34;90.17;99558.16;714831;1176;113683;-81
2021/12/28 17:19:27;;;;;;;82.60;28.80;;;;;;;-2.19;89.38;99548.88;714996;1177;113683;-76
2021/12/28 17:34:30;;;;;;;68.40;25.20;;;;;;;-2.20;89.04;99532.64;714510;1175;113467;-75
2021/12/28 17:49:32;;;;;;;89.23;33.68;;;;;;;-2.16;88.69;99510.20;714623;1199;113810;-79
2021/12/28 18:04:35;;;;;;;88.83;32.83;;;;;;;-2.06;88.37;99495.16;714531;1200;114358;-79
2021/12/28 18:19:37;;;;;;;74.43;26.10;;;;;;;-2.14;88.09;99481.86;715176;1174;113825;-82
2021/12/28 18:34:44;;;;;;;131.48;37.63;;;;;;;-2.05;87.91;99479.66;714943;1200;115202;-73
2021/12/28 18:49:46;;;;;;;103.50;36.00;;;;;;;-1.98;87.86;99479.38;714894;1174;114570;-73
2021/12/28 19:04:49;;;;;;;99.30;33.87;;;;;;;-1.99;87.77;99473.41;715241;1202;114947;-74
2021/12/28 19:19:56;;;;;;;77.55;27.33;;;;;;;-1.96;87.70;99452.69;714827;1177;114296;-77
2021/12/28 19:34:59;;;;;;;76.70;26.57;;;;;;;-1.99;87.56;99459.70;715051;1200;113770;-75
2021/12/28 19:50:03;;;;;;;92.57;30.97;;;;;;;-1.85;87.64;99429.00;727589;1177;113897;-73
2021/12/28 20:05:09;;;;;;;86.45;32.38;;;;;;;-1.83;88.01;99414.34;715563;1203;113726;-73
2021/12/28 20:20:11;;;;;;;73.97;26.80;;;;;;;-1.76;87.97;99425.14;715175;1174;113763;-74
2021/12/28 20:35:15;;;;;;;60.68;23.40;;;;;;;-1.74;87.81;99418.16;719440;1199;113811;-75
2021/12/28 20:50:20;;;;;;;56.15;23.15;;;;;;;-1.69;87.24;99426.48;714564;1200;114403;-75
2021/12/28 21:05:23;;;;;;;86.23;26.55;;;;;;;-1.69;86.92;99395.62;714576;1174;114326;-73
2021/12/28 21:20:32;;;;;;;96.88;31.88;;;;;;;-1.67;87.66;99388.67;714562;1176;114529;-74
2021/12/28 21:35:34;;;;;;;63.57;22.90;;;;;;;-1.65;86.92;99401.44;714614;1199;115301;-75
2021/12/28 21:50:37;;;;;;;51.83;20.05;;;;;;;-1.70;87.55;99396.55;714367;1199;114182;-74
2021/12/28 22:05:39;;;;;;;76.45;24.65;;;;;;;-1.58;86.56;99369.36;714631;1177;114906;-79
2021/12/28 22:20:45;;;;;;;57.63;20.60;;;;;;;-1.79;87.42;99387.55;714604;1202;113928;-79
2021/12/28 22:35:49;;;;;;;95.63;30.25;;;;;;;-1.64;87.85;99372.25;714471;1175;113858;-79
2021/12/28 22:50:51;;;;;;;111.95;33.10;;;;;;;-1.61;88.10;99351.50;714595;1176;113971;-79
2021/12/28 23:05:53;;;;;;;108.68;27.00;;;;;;;-1.50;87.87;99354.34;714586;1177;114599;-79
2021/12/28 23:20:57;;;;;;;65.70;21.77;;;;;;;-1.46;88.11;99339.59;714520;1203;114924;-79
2021/12/28 23:36:00;;;;;;;52.45;20.48;;;;;;;-1.44;88.34;99324.88;715287;1199;114649;-79
2021/12/28 23:51:03;;;;;;;49.15;18.65;;;;;;;-1.32;88.75;99338.83;714624;1199;115002;-79
